createdAt,value
2023-03-26T20:09:52.170Z,1005.00
2023-03-26T20:12:24.337Z,993.06
2023-03-26T20:14:57.307Z,993.07
2023-03-26T20:17:30.506Z,993.07
2023-03-26T20:20:03.667Z,993.09
2023-03-26T20:22:37.458Z,993.11
2023-03-26T20:25:10.417Z,993.13
2023-03-26T20:27:43.328Z,993.12
2023-03-26T20:30:19.215Z,993.14
2023-03-26T20:32:49.186Z,993.15
2023-03-26T20:35:36.042Z,993.17
2023-03-26T20:37:55.392Z,993.18
2023-03-26T20:40:28.693Z,993.21
2023-03-26T20:43:02.259Z,993.23
2023-03-26T20:45:35.619Z,993.26
2023-03-26T20:48:09.328Z,993.28
2023-03-26T20:50:50.441Z,993.30
2023-03-26T20:53:16.212Z,993.33
2023-03-26T20:55:51.531Z,993.37
2023-03-26T20:58:30.731Z,993.39
2023-03-26T21:00:55.636Z,993.40
2023-03-26T21:03:28.609Z,993.43
2023-03-26T21:06:01.514Z,993.45
2023-03-26T21:08:37.356Z,993.48
2023-03-26T21:11:10.598Z,993.51
2023-03-26T21:13:43.545Z,993.54
2023-03-26T21:16:16.514Z,993.56
2023-03-26T21:18:49.562Z,993.60
2023-03-26T21:21:22.589Z,993.64
2023-03-26T21:23:55.528Z,993.67
2023-03-26T21:26:28.897Z,993.70
2023-03-26T21:29:02.558Z,993.74
2023-03-26T21:31:35.687Z,993.79
2023-03-26T21:34:08.446Z,993.84
2023-03-26T21:36:43.528Z,993.88
2023-03-26T21:39:16.564Z,993.92
2023-03-26T21:42:04.731Z,993.96
2023-03-26T21:44:22.529Z,993.98
2023-03-26T21:46:55.744Z,994.03
2023-03-26T21:49:29.623Z,994.06
2023-03-26T21:52:02.661Z,994.11
2023-03-26T21:54:35.607Z,994.15
2023-03-26T21:57:08.679Z,994.19
2023-03-26T21:59:41.665Z,994.25
2023-03-26T22:02:14.585Z,994.29
2023-03-26T22:04:47.620Z,994.34
2023-03-26T22:07:20.324Z,994.39
2023-03-26T22:09:53.662Z,994.44
2023-03-26T22:12:26.753Z,994.49
2023-03-26T22:14:59.657Z,994.55
2023-03-26T22:17:32.764Z,994.62
2023-03-26T22:20:05.720Z,994.69
2023-03-26T22:22:38.681Z,994.75
2023-03-26T22:25:11.686Z,994.81
2023-03-26T22:27:45.094Z,994.88
2023-03-26T22:30:17.604Z,994.94
2023-03-26T22:32:50.818Z,995.01
2023-03-26T22:35:24.666Z,995.07
2023-03-26T22:38:00.934Z,995.14
2023-03-26T22:40:45.727Z,995.22
2023-03-26T22:43:18.646Z,995.29
2023-03-26T22:45:51.754Z,995.36
2023-03-26T22:48:24.652Z,995.43
2023-03-26T22:50:57.773Z,995.49
2023-03-26T22:53:44.732Z,995.53
2023-03-26T22:56:17.533Z,995.58
2023-03-26T22:58:50.754Z,995.65
2023-03-26T23:01:23.699Z,995.72
2023-03-26T23:03:56.814Z,995.77
2023-03-26T23:06:29.693Z,995.84
2023-03-26T23:09:02.778Z,995.91
2023-03-26T23:11:35.838Z,995.98
2023-03-26T23:14:09.584Z,996.06
2023-03-26T23:16:45.696Z,996.12
2023-03-26T23:19:18.410Z,996.18
2023-03-26T23:21:51.764Z,996.25
2023-03-26T23:24:24.668Z,996.31
2023-03-26T23:26:57.753Z,996.39
2023-03-26T23:29:30.857Z,996.46
2023-03-26T23:32:03.550Z,996.54
2023-03-26T23:34:36.759Z,996.61
2023-03-26T23:37:09.767Z,996.68
2023-03-26T23:39:42.846Z,996.74
2023-03-26T23:42:15.747Z,996.81
2023-03-26T23:44:48.821Z,996.88
2023-03-26T23:47:21.438Z,996.95
2023-03-26T23:49:54.564Z,997.04
2023-03-26T23:52:27.776Z,997.11
2023-03-26T23:55:00.642Z,997.18
2023-03-26T23:57:33.939Z,997.27
